Terminal Aerodrome Forecast
Issued by NWS

Home | Current Version | Previous Version | Graphics & Text | Print | Product List | Glossary On
Versions: 1 2 3 4 5 6 7 8 9 10 11 12 13 14 15 16 17 18 19 20 21
000
FTUS43 KBIS 202335
TAFJMS
TAF
KJMS 202335Z 2100/2124 05011KT P6SM -RA SCT015 OVC035
     FM210200 04011KT P6SM -RA SCT010 OVC020
     FM210700 36010KT 6SM -RA OVC008
     FM211100 34011KT P6SM -SHRA OVC010
     FM211200 34011G19KT P6SM OVC010
     FM211800 33017G25KT P6SM BKN040=

USA.gov is the U.S. government's official web portal to all federal, state and local government web resources and services.